Time;durP1;ratioP1;P1;durP2;ratioP2;P2;SDS_P1;SDS_P2;PMS_P1;PMS_P2;Temp;Humidity;BMP_temperature;BMP_pressure;BME280_temperature;BME280_humidity;BME280_pressure;Samples;Min_cycle;Max_cycle;Signal;HPM_P1;HPM_P2
2023/10/11 00:00:56;;;;;;;13.73;5.03;;;11.60;98.00;;;;;;4994312;28;20547;-66
2023/10/11 00:03:32;;;;;;;27.07;5.63;;;11.50;98.00;;;;;;4994329;28;20449;-66
2023/10/11 00:06:00;;;;;;;13.43;5.10;;;11.60;98.00;;;;;;4994445;28;20456;-67
2023/10/11 00:08:27;;;;;;;13.70;5.07;;;11.50;98.00;;;;;;4994206;28;20538;-68
2023/10/11 00:10:55;;;;;;;11.37;4.83;;;11.50;98.00;;;;;;4994038;28;20463;-66
2023/10/11 00:13:24;;;;;;;10.40;4.40;;;11.50;98.00;;;;;;4994079;28;20485;-67
2023/10/11 00:15:53;;;;;;;10.17;4.70;;;11.70;98.00;;;;;;4994005;28;20506;-67
2023/10/11 00:18:21;;;;;;;8.60;4.67;;;11.80;98.00;;;;;;4992826;28;20862;-67
2023/10/11 00:20:52;;;;;;;11.07;4.80;;;11.70;98.00;;;;;;4994086;28;20484;-67
2023/10/11 00:23:22;;;;;;;8.20;4.27;;;11.50;98.00;;;;;;4992689;28;20507;-67
2023/10/11 00:25:51;;;;;;;12.27;5.23;;;11.50;98.00;;;;;;4993959;28;20497;-68
2023/10/11 00:28:23;;;;;;;11.43;4.90;;;11.40;98.00;;;;;;4993823;28;20496;-67
2023/10/11 00:30:53;;;;;;;10.57;4.27;;;11.30;98.00;;;;;;4993756;28;20644;-66
2023/10/11 00:33:21;;;;;;;13.13;5.37;;;11.40;98.00;;;;;;4993346;28;20525;-66
2023/10/11 00:35:50;;;;;;;14.57;4.63;;;11.40;98.00;;;;;;4993621;28;20965;-67
2023/10/11 00:38:19;;;;;;;16.10;5.43;;;11.40;98.00;;;;;;4993838;28;20454;-66
2023/10/11 00:41:06;;;;;;;12.00;5.10;;;11.50;98.00;;;;;;4993589;28;20497;-68
2023/10/11 00:43:34;;;;;;;18.70;4.77;;;11.30;98.00;;;;;;4993755;28;20797;-67
2023/10/11 00:46:03;;;;;;;13.20;4.30;;;11.20;98.00;;;;;;4992845;28;20464;-69
2023/10/11 00:48:37;;;;;;;13.47;5.60;;;11.10;98.00;;;;;;4994287;28;20461;-67
2023/10/11 00:51:07;;;;;;;15.87;5.33;;;11.10;98.00;;;;;;4994134;28;20460;-68
2023/10/11 00:53:35;;;;;;;12.27;4.80;;;11.00;98.00;;;;;;4994195;28;20553;-67
2023/10/11 00:56:06;;;;;;;9.43;4.47;;;11.10;98.00;;;;;;4993908;28;20551;-68
2023/10/11 00:58:37;;;;;;;10.87;4.50;;;11.10;98.00;;;;;;4993771;28;20460;-69
2023/10/11 01:01:08;;;;;;;14.80;4.63;;;11.10;98.00;;;;;;4993817;28;20545;-67
2023/10/11 01:03:36;;;;;;;13.47;4.50;;;11.10;98.00;;;;;;4994238;28;20539;-67
2023/10/11 01:06:04;;;;;;;10.97;5.10;;;11.10;98.00;;;;;;4993658;28;20456;-68
2023/10/11 01:08:38;;;;;;;16.93;5.23;;;11.30;98.00;;;;;;4993365;28;20940;-67
2023/10/11 01:11:08;;;;;;;10.77;4.80;;;11.30;98.00;;;;;;4993476;28;20467;-68
2023/10/11 01:13:39;;;;;;;12.97;5.23;;;11.40;98.00;;;;;;4993462;28;20521;-68
2023/10/11 01:16:07;;;;;;;13.77;5.37;;;11.50;98.00;;;;;;4993297;28;20538;-68
2023/10/11 01:18:34;;;;;;;11.43;4.77;;;11.40;98.00;;;;;;4993283;28;20456;-68
2023/10/11 01:21:04;;;;;;;15.03;5.03;;;11.50;98.00;;;;;;4993387;28;20460;-67
2023/10/11 01:23:34;;;;;;;12.03;5.03;;;11.50;98.00;;;;;;4993484;28;20623;-68
2023/10/11 01:26:07;;;;;;;9.73;4.97;;;11.40;98.00;;;;;;4993356;28;20544;-68
2023/10/11 01:28:35;;;;;;;10.83;4.93;;;11.40;98.00;;;;;;4993601;28;20884;-68
2023/10/11 01:31:08;;;;;;;13.73;4.37;;;11.40;98.00;;;;;;4993141;28;20486;-68
2023/10/11 01:33:36;;;;;;;11.60;5.10;;;11.40;98.00;;;;;;4993153;28;20482;-68
2023/10/11 01:36:07;;;;;;;13.93;5.37;;;11.50;98.00;;;;;;4993065;28;20462;-68
2023/10/11 01:38:45;;;;;;;11.93;4.50;;;11.60;98.00;;;;;;4993079;28;20457;-68
2023/10/11 01:41:16;;;;;;;11.50;4.63;;;11.70;98.00;;;;;;4991785;28;20947;-68
2023/10/11 01:43:46;;;;;;;18.33;4.80;;;11.70;98.00;;;;;;4992837;28;20994;-68
2023/10/11 01:46:17;;;;;;;8.80;4.70;;;11.70;98.00;;;;;;4992408;28;20538;-67
2023/10/11 01:48:44;;;;;;;13.53;5.00;;;11.60;98.00;;;;;;4993012;28;20471;-68
2023/10/11 01:51:15;;;;;;;11.17;4.83;;;11.60;98.00;;;;;;4992742;28;20464;-68
2023/10/11 01:53:44;;;;;;;11.30;4.70;;;11.60;98.00;;;;;;4992951;28;20578;-68
2023/10/11 01:56:13;;;;;;;11.67;4.80;;;11.60;98.00;;;;;;4992628;28;20545;-68
2023/10/11 01:58:43;;;;;;;12.13;5.73;;;11.70;98.00;;;;;;4991774;28;20458;-68
2023/10/11 02:01:21;;;;;;;11.97;4.53;;;11.70;98.00;;;;;;4992722;28;20486;-67
2023/10/11 02:03:51;;;;;;;12.00;4.93;;;11.70;98.00;;;;;;4992823;28;20452;-67
2023/10/11 02:06:20;;;;;;;12.63;5.23;;;11.50;98.00;;;;;;4992838;28;20548;-67
2023/10/11 02:08:48;;;;;;;15.30;4.90;;;11.40;98.00;;;;;;4992497;28;20451;-67
2023/10/11 02:11:15;;;;;;;14.90;4.67;;;11.40;98.00;;;;;;4992410;28;20460;-68
2023/10/11 02:13:42;;;;;;;10.70;4.47;;;11.50;98.00;;;;;;4992875;28;20482;-67
2023/10/11 02:16:13;;;;;;;12.53;5.17;;;11.50;98.00;;;;;;4992838;28;20480;-67
2023/10/11 02:18:40;;;;;;;23.37;4.90;;;11.50;98.00;;;;;;4992753;28;20513;-68
2023/10/11 02:21:07;;;;;;;12.30;5.00;;;11.50;98.00;;;;;;4992550;28;20948;-68
2023/10/11 02:23:39;;;;;;;14.50;4.63;;;11.50;98.00;;;;;;4992527;28;20539;-67
2023/10/11 02:26:16;;;;;;;17.37;6.07;;;11.30;98.00;;;;;;4992474;28;20493;-68
2023/10/11 02:28:44;;;;;;;12.97;5.10;;;11.30;98.00;;;;;;4992783;28;20515;-67
2023/10/11 02:31:13;;;;;;;13.63;4.80;;;11.40;98.00;;;;;;4992397;28;20493;-68
2023/10/11 02:33:40;;;;;;;10.93;4.60;;;11.50;98.00;;;;;;4992807;28;20568;-68
2023/10/11 02:36:09;;;;;;;11.90;4.80;;;11.30;98.00;;;;;;4991405;28;20803;-67
2023/10/11 02:38:41;;;;;;;16.00;4.53;;;11.40;98.00;;;;;;4992987;28;20800;-68
2023/10/11 02:41:09;;;;;;;7.70;4.60;;;11.40;98.00;;;;;;4992399;28;20681;-67
2023/10/11 02:43:47;;;;;;;16.97;4.83;;;11.50;98.00;;;;;;4992890;28;20453;-68
2023/10/11 02:46:15;;;;;;;16.27;4.80;;;11.50;98.00;;;;;;4992268;28;20457;-67
2023/10/11 02:48:46;;;;;;;13.33;5.50;;;11.40;98.00;;;;;;4992160;28;20937;-68
2023/10/11 02:51:16;;;;;;;14.90;5.57;;;11.30;98.00;;;;;;4992209;28;20450;-68
2023/10/11 02:53:45;;;;;;;15.50;4.93;;;11.30;98.00;;;;;;4991927;28;20980;-68
2023/10/11 02:56:14;;;;;;;13.47;4.57;;;11.00;98.00;;;;;;4993666;28;20460;-68
2023/10/11 02:58:42;;;;;;;13.00;4.90;;;10.90;98.00;;;;;;4995928;28;20462;-67
2023/10/11 03:01:14;;;;;;;10.07;4.30;;;10.80;98.00;;;;;;4995971;28;20457;-69
2023/10/11 03:03:42;;;;;;;12.20;5.30;;;10.70;98.00;;;;;;4996264;28;20975;-67
2023/10/11 03:06:09;;;;;;;12.10;5.40;;;10.80;98.00;;;;;;4995978;28;20454;-68
2023/10/11 03:08:37;;;;;;;9.07;4.93;;;10.70;98.00;;;;;;4996248;28;20491;-68
2023/10/11 03:11:08;;;;;;;12.93;5.23;;;10.70;98.00;;;;;;4995746;28;20547;-67
2023/10/11 03:13:41;;;;;;;11.30;4.43;;;10.70;98.00;;;;;;4996285;28;20807;-67
2023/10/11 03:16:12;;;;;;;11.37;4.43;;;10.70;98.00;;;;;;4994644;28;20480;-67
2023/10/11 03:18:40;;;;;;;9.70;4.63;;;10.70;98.00;;;;;;4994608;28;20473;-67
2023/10/11 03:21:17;;;;;;;12.63;4.80;;;10.70;98.00;;;;;;4994376;28;20489;-69
2023/10/11 03:23:45;;;;;;;10.90;4.40;;;10.70;98.00;;;;;;4995821;28;20484;-68
2023/10/11 03:26:31;;;;;;;16.43;5.73;;;10.70;98.00;;;;;;4995679;28;20550;-67
2023/10/11 03:28:59;;;;;;;14.57;4.80;;;10.80;98.00;;;;;;4995664;28;20450;-67
2023/10/11 03:31:28;;;;;;;15.97;5.20;;;10.80;98.00;;;;;;4995712;28;20470;-68
2023/10/11 03:33:56;;;;;;;11.00;4.60;;;10.70;98.00;;;;;;4995598;28;20884;-68
2023/10/11 03:36:28;;;;;;;19.00;5.23;;;10.80;98.00;;;;;;4995326;28;20450;-67
2023/10/11 03:38:58;;;;;;;14.13;4.90;;;10.70;98.00;;;;;;4995591;28;20480;-67
2023/10/11 03:41:29;;;;;;;14.70;4.77;;;10.70;98.00;;;;;;4995414;28;20518;-67
2023/10/11 03:44:01;;;;;;;13.40;4.77;;;10.80;98.00;;;;;;4995617;28;20871;-67
2023/10/11 03:46:33;;;;;;;9.30;4.60;;;10.70;98.00;;;;;;4995283;28;20456;-68
2023/10/11 03:49:34;;;;;;;12.97;4.73;;;10.60;98.00;;;;;;4995407;28;21024;-68
2023/10/11 03:52:04;;;;;;;16.30;5.23;;;10.60;98.00;;;;;;4995159;28;20447;-68
2023/10/11 03:54:36;;;;;;;13.27;5.00;;;10.70;98.00;;;;;;4995527;28;20826;-67
2023/10/11 03:57:05;;;;;;;9.03;4.10;;;10.80;98.00;;;;;;4995257;28;20455;-68
2023/10/11 03:59:39;;;;;;;11.73;4.40;;;10.70;98.00;;;;;;4995172;28;20460;-68
2023/10/11 04:02:10;;;;;;;12.60;5.23;;;10.70;98.00;;;;;;4993998;28;20951;-68
2023/10/11 04:04:42;;;;;;;8.93;4.13;;;10.70;98.00;;;;;;4995153;28;20508;-67
2023/10/11 04:07:12;;;;;;;13.43;5.30;;;10.60;98.00;;;;;;4994107;28;20836;-67
2023/10/11 04:09:39;;;;;;;11.60;4.30;;;10.50;98.00;;;;;;4995126;28;20507;-68
2023/10/11 04:12:10;;;;;;;11.63;4.90;;;10.60;98.00;;;;;;4994828;28;20461;-68
2023/10/11 04:14:44;;;;;;;9.50;4.10;;;10.60;98.00;;;;;;4995051;28;20495;-67
2023/10/11 04:17:25;;;;;;;9.53;4.27;;;10.50;98.00;;;;;;4994892;28;20445;-68
2023/10/11 04:19:54;;;;;;;13.63;4.70;;;10.30;98.00;;;;;;4995104;28;20465;-67
2023/10/11 04:22:24;;;;;;;11.20;4.53;;;10.30;98.00;;;;;;4994604;28;20450;-68
2023/10/11 04:24:53;;;;;;;12.40;5.27;;;10.30;98.00;;;;;;4994666;28;20499;-67
2023/10/11 04:30:23;;;;;;;13.60;4.90;;;10.30;98.00;;;;;;4994115;28;20545;-67
2023/10/11 04:32:56;;;;;;;13.93;4.30;;;10.30;98.00;;;;;;4994526;28;20794;-67
2023/10/11 04:35:24;;;;;;;19.30;4.50;;;10.20;98.00;;;;;;4993105;28;21021;-66
2023/10/11 04:37:54;;;;;;;11.70;4.90;;;10.20;98.00;;;;;;4994283;28;20462;-67
2023/10/11 04:40:35;;;;;;;14.07;5.10;;;10.30;98.00;;;;;;4992686;28;20454;-66
2023/10/11 04:43:20;;;;;;;15.17;5.40;;;10.30;98.00;;;;;;4994294;28;20544;-67
2023/10/11 04:45:49;;;;;;;11.07;4.70;;;10.30;98.00;;;;;;4993916;28;20548;-68
2023/10/11 04:48:18;;;;;;;15.10;4.60;;;10.40;98.00;;;;;;4994096;28;20460;-67
2023/10/11 04:50:47;;;;;;;15.60;5.40;;;10.40;98.00;;;;;;4994211;28;20456;-67
2023/10/11 04:53:18;;;;;;;13.93;5.40;;;10.40;98.00;;;;;;4993871;28;20466;-67
2023/10/11 04:55:48;;;;;;;10.20;4.60;;;10.50;98.00;;;;;;4993974;28;20490;-67
2023/10/11 04:58:39;;;;;;;8.77;4.40;;;10.50;98.00;;;;;;4992764;28;20842;-68
2023/10/11 05:01:08;;;;;;;12.40;4.87;;;10.50;98.00;;;;;;4993895;28;20464;-67
2023/10/11 05:03:37;;;;;;;9.00;4.70;;;10.60;98.00;;;;;;4994030;28;20522;-67
2023/10/11 05:06:13;;;;;;;13.40;4.90;;;10.40;98.00;;;;;;4993510;28;20447;-67
2023/10/11 05:08:54;;;;;;;10.47;4.67;;;10.30;98.00;;;;;;4993653;28;20966;-68
2023/10/11 05:11:35;;;;;;;10.13;4.67;;;10.40;98.00;;;;;;4993401;28;20462;-68
2023/10/11 05:16:49;;;;;;;16.37;4.80;;;10.40;98.00;;;;;;4994061;28;20447;-68
2023/10/11 05:19:20;;;;;;;14.07;4.80;;;10.30;98.00;;;;;;4992672;28;20815;-68
2023/10/11 05:21:52;;;;;;;15.27;5.00;;;10.30;98.00;;;;;;4993800;28;20453;-69
2023/10/11 05:24:43;;;;;;;14.27;5.33;;;10.40;98.00;;;;;;4993720;28;20496;-68
2023/10/11 05:27:36;;;;;;;10.90;4.53;;;10.30;98.00;;;;;;4993502;28;20798;-68
2023/10/11 05:30:12;;;;;;;12.57;4.93;;;10.40;98.00;;;;;;4992635;28;20550;-68
2023/10/11 05:32:41;;;;;;;20.67;5.43;;;10.50;98.00;;;;;;4993677;28;20523;-68
2023/10/11 05:35:24;;;;;;;10.37;4.70;;;10.50;98.00;;;;;;4993393;28;20545;-68
2023/10/11 05:51:51;;;;;;;10.57;5.23;;;10.10;98.00;;;;;;4951518;28;20475;-67
2023/10/11 05:54:20;;;;;;;11.10;4.93;;;10.00;98.00;;;;;;4983379;28;20464;-68
2023/10/11 05:56:49;;;;;;;9.77;4.47;;;10.00;98.00;;;;;;4992856;28;20446;-67
2023/10/11 05:59:16;;;;;;;10.50;4.50;;;10.20;98.00;;;;;;4993461;28;20465;-63
2023/10/11 06:01:45;;;;;;;11.37;5.00;;;10.20;98.00;;;;;;4993595;28;20770;-62
2023/10/11 06:04:14;;;;;;;13.67;4.33;;;10.10;98.00;;;;;;4993124;28;20547;-63
2023/10/11 06:06:42;;;;;;;13.33;5.00;;;10.10;98.00;;;;;;4993353;28;20543;-62
2023/10/11 06:09:16;;;;;;;12.60;4.37;;;10.00;98.00;;;;;;4993024;28;20460;-63
2023/10/11 06:11:48;;;;;;;12.23;4.97;;;10.10;98.00;;;;;;4992471;28;20836;-63
2023/10/11 06:14:16;;;;;;;13.80;5.10;;;10.00;98.00;;;;;;4992855;28;20488;-63
2023/10/11 06:16:56;;;;;;;12.87;5.00;;;10.20;98.00;;;;;;4992746;28;20787;-62
2023/10/11 06:19:26;;;;;;;13.27;4.70;;;10.30;98.00;;;;;;4992534;28;20958;-63
2023/10/11 06:21:58;;;;;;;16.90;7.53;;;10.20;98.00;;;;;;4991568;28;20488;-62
2023/10/11 06:24:25;;;;;;;13.50;5.83;;;10.20;98.00;;;;;;4992749;28;21065;-63
2023/10/11 06:26:53;;;;;;;14.83;5.20;;;10.20;98.00;;;;;;4992713;28;20468;-62
2023/10/11 06:29:29;;;;;;;14.67;6.40;;;10.20;98.00;;;;;;4992570;28;20945;-63
2023/10/11 06:31:58;;;;;;;21.00;7.33;;;10.20;98.00;;;;;;4991090;28;20545;-63
2023/10/11 06:34:26;;;;;;;10.60;5.50;;;10.30;98.00;;;;;;4992447;28;20453;-62
2023/10/11 06:36:55;;;;;;;11.60;4.60;;;10.30;98.00;;;;;;4992517;28;20551;-63
2023/10/11 06:42:21;;;;;;;13.37;5.37;;;10.40;98.00;;;;;;4991931;28;20458;-63
2023/10/11 06:44:49;;;;;;;16.07;5.10;;;10.30;98.00;;;;;;4992228;28;20460;-63
2023/10/11 06:47:21;;;;;;;17.27;5.70;;;10.50;98.00;;;;;;4992350;28;20463;-63
2023/10/11 06:49:54;;;;;;;29.23;6.87;;;10.70;98.00;;;;;;4992532;28;20965;-62
2023/10/11 06:52:25;;;;;;;16.50;5.20;;;10.80;98.00;;;;;;4992397;28;20459;-62
2023/10/11 06:55:08;;;;;;;14.13;4.83;;;10.80;98.00;;;;;;4992162;28;20497;-63
2023/10/11 06:57:39;;;;;;;10.63;4.77;;;10.80;98.00;;;;;;4992602;28;20461;-63
2023/10/11 07:00:12;;;;;;;10.83;5.10;;;10.80;98.00;;;;;;4992705;28;20519;-62
2023/10/11 07:02:47;;;;;;;10.47;5.17;;;10.80;98.00;;;;;;4992389;28;20968;-62
2023/10/11 07:05:19;;;;;;;21.47;7.40;;;10.80;98.00;;;;;;4992498;28;20467;-63
2023/10/11 07:07:52;;;;;;;16.93;7.13;;;10.80;98.00;;;;;;4992547;28;20454;-62
2023/10/11 07:10:29;;;;;;;14.93;6.20;;;10.90;98.00;;;;;;4972204;28;20962;-63
2023/10/11 07:13:06;;;;;;;13.63;5.37;;;11.00;98.00;;;;;;4972667;28;20461;-62
2023/10/11 07:15:41;;;;;;;16.73;5.40;;;11.00;98.00;;;;;;4972810;28;20490;-63
2023/10/11 07:18:11;;;;;;;17.43;5.50;;;11.00;98.00;;;;;;4972766;28;20456;-62
2023/10/11 07:20:58;;;;;;;15.27;5.93;;;11.00;98.00;;;;;;4972801;28;20510;-62
2023/10/11 07:23:35;;;;;;;19.87;5.90;;;11.10;98.00;;;;;;4982128;28;20488;-62
2023/10/11 07:28:52;;;;;;;13.97;5.57;;;11.40;98.00;;;;;;4972912;28;20586;-63
2023/10/11 07:31:31;;;;;;;12.37;5.13;;;11.50;98.00;;;;;;4972679;28;20468;-63
2023/10/11 07:34:05;;;;;;;11.50;5.50;;;11.60;98.00;;;;;;4972665;28;20569;-63
2023/10/11 07:36:32;;;;;;;9.00;4.93;;;11.80;98.00;;;;;;4972703;28;20495;-62
2023/10/11 07:39:14;;;;;;;15.37;6.03;;;12.00;98.00;;;;;;4972767;28;20553;-62
2023/10/11 07:41:42;;;;;;;14.97;5.97;;;12.30;98.00;;;;;;4972889;28;20480;-62
2023/10/11 07:44:10;;;;;;;23.87;5.70;;;12.40;98.00;;;;;;4975280;28;20477;-64
2023/10/11 07:46:38;;;;;;;12.63;4.90;;;12.50;98.00;;;;;;4975309;28;20510;-62
2023/10/11 07:49:14;;;;;;;15.03;5.27;;;12.50;98.00;;;;;;4976255;28;20462;-62
2023/10/11 07:51:42;;;;;;;17.60;5.93;;;12.60;98.00;;;;;;4975881;28;20828;-62
2023/10/11 07:54:19;;;;;;;14.43;6.63;;;12.70;98.00;;;;;;4975007;28;20458;-62
2023/10/11 07:56:46;;;;;;;16.23;5.20;;;12.80;98.00;;;;;;4975415;28;20489;-64
2023/10/11 07:59:14;;;;;;;15.43;5.83;;;12.90;98.00;;;;;;4975747;28;20468;-63
2023/10/11 08:01:43;;;;;;;17.30;5.90;;;13.10;98.00;;;;;;4974520;28;20462;-63
2023/10/11 08:04:18;;;;;;;12.60;5.70;;;13.30;98.00;;;;;;4975327;28;20543;-63
2023/10/11 08:06:45;;;;;;;16.20;5.50;;;13.50;98.00;;;;;;4973542;28;20504;-63
2023/10/11 08:09:18;;;;;;;14.50;5.70;;;13.60;98.00;;;;;;4975227;28;20461;-63
2023/10/11 08:11:52;;;;;;;13.73;6.00;;;13.80;98.00;;;;;;4974771;28;20468;-63
2023/10/11 08:14:22;;;;;;;13.33;5.57;;;14.00;98.00;;;;;;4974925;28;20462;-63
2023/10/11 08:16:50;;;;;;;8.67;4.37;;;14.10;98.00;;;;;;4974809;28;20831;-63
2023/10/11 08:19:19;;;;;;;6.40;3.60;;;14.30;98.00;;;;;;4974842;28;20463;-68
2023/10/11 08:21:54;;;;;;;10.03;4.77;;;14.70;98.00;;;;;;4975030;28;20476;-61
2023/10/11 08:24:27;;;;;;;16.90;5.83;;;15.20;98.00;;;;;;4986944;28;20551;-61
2023/10/11 08:27:05;;;;;;;14.17;5.40;;;15.50;98.00;;;;;;4994330;28;20459;-61
2023/10/11 08:29:33;;;;;;;13.70;5.47;;;15.60;98.00;;;;;;4994626;28;20515;-61
2023/10/11 08:32:06;;;;;;;17.93;6.73;;;15.70;98.00;;;;;;4993717;28;20487;-63
2023/10/11 08:34:35;;;;;;;16.00;6.60;;;15.80;98.00;;;;;;4991792;28;20460;-63
2023/10/11 08:37:02;;;;;;;12.23;5.40;;;15.80;98.00;;;;;;4993196;28;20488;-63
2023/10/11 08:39:41;;;;;;;15.63;6.30;;;15.90;98.00;;;;;;4994271;28;20810;-63
2023/10/11 08:42:11;;;;;;;14.97;5.40;;;16.00;98.00;;;;;;4994342;28;20448;-63
2023/10/11 08:44:40;;;;;;;16.90;5.97;;;16.10;98.00;;;;;;4994395;28;20461;-63
2023/10/11 08:47:07;;;;;;;11.77;5.50;;;16.30;98.00;;;;;;4994315;28;20452;-62
2023/10/11 08:49:41;;;;;;;14.13;5.80;;;16.50;98.00;;;;;;4994526;28;20448;-62
2023/10/11 08:52:10;;;;;;;13.13;4.93;;;16.60;98.00;;;;;;4994232;28;20499;-62
2023/10/11 08:54:38;;;;;;;11.83;5.63;;;16.80;98.00;;;;;;4993874;28;20492;-63
2023/10/11 08:57:06;;;;;;;10.67;4.93;;;16.90;98.00;;;;;;4994139;28;20989;-62
2023/10/11 08:59:44;;;;;;;13.67;5.40;;;17.00;98.00;;;;;;4994254;28;20993;-63
2023/10/11 09:02:11;;;;;;;11.00;4.90;;;17.20;98.00;;;;;;4994198;28;20448;-63
2023/10/11 09:05:00;;;;;;;9.10;5.00;;;17.40;98.00;;;;;;4994002;28;21119;-63
2023/10/11 09:07:38;;;;;;;14.37;5.53;;;17.60;98.00;;;;;;4993559;28;20783;-63
2023/10/11 09:10:24;;;;;;;10.60;5.00;;;17.80;98.00;;;;;;4993565;28;20463;-62
2023/10/11 09:12:56;;;;;;;10.97;4.70;;;18.00;98.00;;;;;;4993301;28;20519;-62
2023/10/11 09:15:24;;;;;;;11.50;4.87;;;18.20;98.00;;;;;;4992528;28;20958;-63
2023/10/11 09:18:12;;;;;;;15.53;5.10;;;18.30;98.00;;;;;;4992317;28;20543;-63
2023/10/11 09:20:41;;;;;;;10.67;4.67;;;18.50;98.00;;;;;;4993994;28;20484;-63
2023/10/11 09:23:11;;;;;;;10.67;5.23;;;18.80;98.00;;;;;;4994023;28;20461;-63
2023/10/11 09:25:57;;;;;;;12.43;4.47;;;19.00;98.00;;;;;;4992267;28;20491;-62
2023/10/11 09:28:25;;;;;;;11.93;4.30;;;19.30;98.00;;;;;;4993715;28;20536;-62
2023/10/11 09:31:10;;;;;;;14.00;4.13;;;19.50;98.00;;;;;;4992515;28;20461;-63
2023/10/11 09:33:40;;;;;;;10.50;4.73;;;19.70;98.00;;;;;;4987973;28;20464;-62
2023/10/11 09:36:10;;;;;;;9.67;4.47;;;19.90;98.00;;;;;;4990598;28;20492;-62
2023/10/11 09:38:42;;;;;;;10.60;4.43;;;20.10;98.00;;;;;;4990900;28;20457;-63
2023/10/11 09:41:12;;;;;;;11.70;4.97;;;20.30;98.00;;;;;;4990321;28;20525;-62
2023/10/11 09:43:44;;;;;;;10.80;4.73;;;20.50;98.00;;;;;;4991033;28;21053;-63
2023/10/11 09:46:13;;;;;;;8.47;4.00;;;20.70;98.00;;;;;;4990516;28;20492;-62
2023/10/11 09:48:41;;;;;;;13.03;4.80;;;21.00;98.00;;;;;;4990533;28;20448;-62
2023/10/11 09:51:13;;;;;;;13.23;4.23;;;21.10;98.00;;;;;;4990201;28;20495;-62
2023/10/11 09:53:49;;;;;;;11.53;3.60;;;21.40;98.00;;;;;;4990681;28;20471;-66
2023/10/11 09:56:31;;;;;;;8.30;4.30;;;21.60;98.00;;;;;;4989605;28;20598;-66
2023/10/11 09:59:19;;;;;;;12.10;4.43;;;22.00;98.00;;;;;;4986100;28;20471;-66
2023/10/11 10:01:52;;;;;;;8.30;3.70;;;22.20;98.00;;;;;;4990775;28;20523;-66
2023/10/11 10:04:39;;;;;;;9.73;4.30;;;22.30;98.00;;;;;;4991001;28;20942;-66
2023/10/11 10:07:14;;;;;;;8.10;4.33;;;22.50;98.00;;;;;;4988924;28;20951;-66
2023/10/11 10:09:52;;;;;;;12.57;4.30;;;22.60;98.00;;;;;;4992640;28;20944;-63
2023/10/11 10:12:22;;;;;;;9.90;3.90;;;22.70;98.00;;;;;;4992424;28;20464;-64
2023/10/11 10:15:03;;;;;;;7.77;3.50;;;22.80;98.00;;;;;;4991601;28;20452;-63
2023/10/11 10:17:31;;;;;;;10.10;4.20;;;23.00;98.00;;;;;;4992266;28;20491;-63
2023/10/11 10:20:41;;;;;;;15.40;4.20;;;23.20;98.00;;;;;;4992775;28;20460;-63
2023/10/11 10:23:32;;;;;;;11.73;4.27;;;23.40;98.00;;;;;;4992725;28;20448;-63
2023/10/11 10:26:43;;;;;;;8.80;4.40;;;23.60;98.00;;;;;;4992866;28;20962;-63
2023/10/11 10:29:59;;;;;;;7.60;3.47;;;23.80;98.00;;;;;;4992614;28;20483;-63
2023/10/11 10:32:27;;;;;;;10.60;4.37;;;24.10;97.60;;;;;;4992504;28;20448;-63
2023/10/11 10:35:28;;;;;;;8.20;4.10;;;24.30;95.20;;;;;;4992374;28;20456;-63
2023/10/11 10:37:56;;;;;;;11.90;3.80;;;24.60;95.70;;;;;;4991870;28;20488;-64
2023/10/11 10:40:25;;;;;;;9.27;3.80;;;24.80;92.40;;;;;;4992395;28;20457;-64
2023/10/11 10:43:27;;;;;;;10.60;3.53;;;24.90;94.00;;;;;;4990725;28;20491;-64
2023/10/11 10:45:59;;;;;;;13.03;4.20;;;25.20;92.50;;;;;;4950850;28;20549;-63
2023/10/11 10:48:31;;;;;;;6.10;3.70;;;25.50;93.00;;;;;;4951135;28;20566;-64
2023/10/11 10:51:03;;;;;;;10.40;3.93;;;25.70;92.00;;;;;;4971924;28;20456;-64
2023/10/11 10:53:38;;;;;;;13.07;4.07;;;25.80;90.10;;;;;;4991404;28;20492;-64
2023/10/11 10:56:06;;;;;;;8.83;4.10;;;26.00;87.80;;;;;;4992074;28;20479;-64
2023/10/11 10:58:33;;;;;;;11.30;4.00;;;26.20;87.80;;;;;;4991451;28;20460;-64
2023/10/11 11:00:59;;;;;;;11.47;4.50;;;26.40;86.90;;;;;;4991309;28;20943;-64
2023/10/11 11:03:31;;;;;;;10.30;3.67;;;26.70;87.60;;;;;;4991965;28;20823;-64
2023/10/11 11:06:01;;;;;;;7.00;3.60;;;27.00;86.70;;;;;;4991749;28;20551;-64
2023/10/11 11:08:31;;;;;;;10.73;3.70;;;27.20;85.30;;;;;;4990346;28;20461;-64
2023/10/11 11:11:18;;;;;;;11.63;3.90;;;27.60;85.70;;;;;;4990718;28;20539;-64
2023/10/11 11:13:48;;;;;;;8.97;3.87;;;27.80;84.30;;;;;;4991565;28;20844;-64
2023/10/11 11:16:19;;;;;;;11.80;4.00;;;28.10;84.40;;;;;;4991496;28;20596;-64
2023/10/11 11:18:45;;;;;;;7.87;3.93;;;28.30;84.20;;;;;;4995244;28;20481;-64
2023/10/11 11:21:23;;;;;;;11.30;3.60;;;28.50;83.20;;;;;;4995776;28;20551;-64
2023/10/11 11:23:50;;;;;;;10.90;4.20;;;28.40;83.40;;;;;;4995563;28;20451;-64
2023/10/11 11:26:18;;;;;;;8.30;3.60;;;28.60;82.80;;;;;;4995654;28;20539;-64
2023/10/11 11:28:46;;;;;;;17.60;4.47;;;28.80;82.70;;;;;;4995899;28;20453;-64
2023/10/11 11:31:25;;;;;;;12.00;4.60;;;29.00;81.40;;;;;;5042637;23;20516;-89
2023/10/11 11:34:27;;;;;;;7.57;3.90;;;29.10;81.30;;;;;;5035023;28;20493;-89
2023/10/11 11:36:58;;;;;;;10.83;4.10;;;29.30;81.40;;;;;;5035460;28;20477;-89
2023/10/11 11:39:36;;;;;;;11.40;4.10;;;29.40;82.00;;;;;;5021776;28;20483;-90
2023/10/11 11:42:18;;;;;;;12.10;4.33;;;29.80;80.00;;;;;;5017208;28;20459;-89
2023/10/11 11:44:46;;;;;;;8.93;3.90;;;30.00;79.80;;;;;;5017137;28;20454;-90
2023/10/11 11:47:21;;;;;;;11.20;4.20;;;30.20;80.10;;;;;;5017128;28;20452;-89
2023/10/11 11:49:47;;;;;;;9.10;3.90;;;30.40;77.80;;;;;;5017005;28;20541;-90
2023/10/11 11:52:16;;;;;;;13.23;4.17;;;30.60;77.90;;;;;;5016851;28;20488;-90
2023/10/11 11:54:43;;;;;;;6.20;3.43;;;30.50;76.70;;;;;;5017026;28;20806;-90
2023/10/11 11:57:11;;;;;;;7.33;3.93;;;30.50;77.30;;;;;;5016820;28;21107;-89
2023/10/11 11:59:38;;;;;;;9.27;4.10;;;30.60;76.50;;;;;;5017635;28;20510;-89
2023/10/11 12:02:16;;;;;;;15.07;4.40;;;30.50;76.70;;;;;;5017296;28;20454;-89
2023/10/11 12:04:44;;;;;;;11.30;4.10;;;30.80;78.00;;;;;;5016209;28;20462;-90
2023/10/11 12:07:11;;;;;;;9.47;4.00;;;30.90;76.00;;;;;;5015553;28;20454;-88
2023/10/11 12:09:38;;;;;;;10.73;3.80;;;31.00;77.00;;;;;;5015364;28;20483;-88
2023/10/11 12:12:06;;;;;;;8.30;4.33;;;31.20;76.70;;;;;;5015673;28;20521;-89
2023/10/11 12:14:37;;;;;;;8.00;4.27;;;31.30;76.10;;;;;;5016155;28;20478;-88
2023/10/11 12:17:09;;;;;;;12.17;4.60;;;31.20;75.10;;;;;;5016056;28;20476;-88
2023/10/11 12:19:37;;;;;;;13.07;5.50;;;31.20;75.60;;;;;;5016498;28;20483;-88
2023/10/11 12:22:05;;;;;;;10.27;4.93;;;31.10;74.70;;;;;;5015869;28;20448;-89
2023/10/11 12:24:32;;;;;;;8.53;4.53;;;31.10;74.50;;;;;;5016245;28;20443;-90
2023/10/11 12:26:59;;;;;;;6.90;3.80;;;31.30;75.80;;;;;;5016558;28;20523;-90
2023/10/11 12:29:27;;;;;;;10.50;4.60;;;31.60;74.30;;;;;;5016256;28;20632;-90
2023/10/11 12:31:55;;;;;;;9.43;4.33;;;31.70;75.30;;;;;;5016841;28;20467;-90
2023/10/11 12:34:24;;;;;;;10.10;4.07;;;31.90;74.10;;;;;;5016502;28;20479;-90
2023/10/11 12:36:53;;;;;;;8.47;4.20;;;32.00;74.70;;;;;;5016210;28;20526;-89
2023/10/11 12:39:25;;;;;;;7.00;4.27;;;32.00;75.10;;;;;;5016365;28;20516;-89
2023/10/11 12:41:54;;;;;;;9.33;4.77;;;32.00;73.90;;;;;;5015386;28;20466;-89
2023/10/11 12:44:22;;;;;;;12.00;4.80;;;32.10;72.90;;;;;;5015239;28;20494;-89
2023/10/11 12:46:50;;;;;;;7.90;4.17;;;32.30;72.40;;;;;;5015298;28;20525;-89
2023/10/11 12:49:17;;;;;;;10.90;4.37;;;32.40;73.40;;;;;;5014855;28;20487;-89
2023/10/11 12:51:45;;;;;;;12.93;4.50;;;32.50;72.30;;;;;;5015193;28;20554;-89
2023/10/11 12:54:14;;;;;;;10.40;4.47;;;32.50;72.30;;;;;;5015327;28;20479;-89
2023/10/11 12:56:43;;;;;;;9.70;4.20;;;32.50;72.90;;;;;;5015620;28;20855;-89
2023/10/11 12:59:12;;;;;;;6.90;4.23;;;32.40;73.20;;;;;;5014639;28;20504;-89
2023/10/11 13:01:42;;;;;;;11.83;4.60;;;32.40;72.90;;;;;;5015273;28;20872;-89
2023/10/11 13:04:13;;;;;;;10.50;4.20;;;32.40;73.20;;;;;;5015132;28;20436;-89
2023/10/11 13:06:47;;;;;;;10.90;4.10;;;32.40;72.50;;;;;;5014959;28;20475;-90
2023/10/11 13:09:15;;;;;;;10.63;4.20;;;32.50;72.80;;;;;;5015114;28;20471;-89
2023/10/11 13:11:44;;;;;;;10.60;4.57;;;32.50;71.50;;;;;;5014614;28;20939;-89
2023/10/11 13:14:18;;;;;;;10.87;4.43;;;32.70;71.70;;;;;;5014517;28;20866;-90
2023/10/11 13:16:48;;;;;;;11.60;4.93;;;32.90;72.00;;;;;;5015129;28;20444;-90
2023/10/11 13:19:17;;;;;;;8.10;4.20;;;33.00;71.00;;;;;;5014449;28;20538;-90
2023/10/11 13:21:46;;;;;;;8.30;4.40;;;33.00;70.70;;;;;;5015008;28;20982;-90
2023/10/11 13:24:14;;;;;;;7.70;4.57;;;33.00;70.80;;;;;;5015636;28;20441;-90
2023/10/11 13:26:43;;;;;;;10.17;4.97;;;32.90;71.70;;;;;;5016912;28;20467;-89
2023/10/11 13:29:16;;;;;;;11.33;5.20;;;32.80;71.40;;;;;;5014378;28;20485;-89